createdAt,value
2023-01-20T00:01:32.997Z,99.90
2023-01-20T00:03:59.958Z,99.90
2023-01-20T00:06:27.987Z,99.90
2023-01-20T00:08:56.642Z,99.90
2023-01-20T00:11:23.372Z,99.90
2023-01-20T00:13:57.219Z,99.90
2023-01-20T00:16:24.801Z,99.90
2023-01-20T00:18:51.503Z,99.90
2023-01-20T00:21:18.597Z,99.90
2023-01-20T00:23:46.898Z,99.90
2023-01-20T00:26:16.326Z,99.90
2023-01-20T00:28:44.137Z,99.90
2023-01-20T00:31:12.907Z,99.90
2023-01-20T00:33:40.090Z,99.90
2023-01-20T00:36:07.278Z,99.90
2023-01-20T00:38:33.963Z,99.90
2023-01-20T00:41:00.687Z,99.90
2023-01-20T00:43:27.520Z,99.90
2023-01-20T00:45:54.195Z,99.90
2023-01-20T00:48:20.839Z,99.90
2023-01-20T00:50:47.730Z,99.90
2023-01-20T00:53:14.432Z,99.90
2023-01-20T00:55:41.048Z,99.90
2023-01-20T00:58:07.668Z,99.90
2023-01-20T01:00:34.353Z,99.90
2023-01-20T01:03:01.072Z,99.90
2023-01-20T01:05:27.690Z,99.90
2023-01-20T01:07:54.301Z,99.90
2023-01-20T01:10:20.946Z,99.90
2023-01-20T01:12:47.548Z,99.90
2023-01-20T01:15:15.241Z,99.90
2023-01-20T01:17:44.009Z,99.90
2023-01-20T01:20:13.976Z,99.90
2023-01-20T01:22:40.850Z,99.90
2023-01-20T01:25:07.726Z,99.90
2023-01-20T01:27:34.401Z,99.90
2023-01-20T01:30:01.072Z,99.90
2023-01-20T01:32:27.827Z,99.90
2023-01-20T01:34:54.556Z,99.90
2023-01-20T01:37:21.165Z,99.90
2023-01-20T01:39:47.796Z,99.90
2023-01-20T01:42:17.618Z,99.90
2023-01-20T01:45:12.524Z,99.90
2023-01-20T01:48:08.850Z,99.90
2023-01-20T01:50:41.373Z,99.90
2023-01-20T01:53:09.573Z,99.90
2023-01-20T01:55:39.411Z,99.90
2023-01-20T01:58:07.997Z,99.90
2023-01-20T02:00:34.615Z,99.90
2023-01-20T02:03:01.389Z,99.90
2023-01-20T02:05:30.390Z,99.90
2023-01-20T02:07:58.248Z,99.90
2023-01-20T02:10:25.043Z,99.90
2023-01-20T02:12:52.123Z,99.90
2023-01-20T02:15:26.024Z,99.90
2023-01-20T02:18:39.621Z,99.90
2023-01-20T02:21:21.400Z,99.90
2023-01-20T02:23:51.003Z,99.90
2023-01-20T02:27:11.948Z,99.90
2023-01-20T02:30:10.418Z,99.90
2023-01-20T02:32:55.554Z,99.90
2023-01-20T02:35:37.383Z,99.90
2023-01-20T02:38:18.652Z,99.90
2023-01-20T02:40:53.594Z,99.90
2023-01-20T02:43:29.765Z,99.90
2023-01-20T02:46:05.751Z,99.90
2023-01-20T02:48:47.117Z,99.90
2023-01-20T02:51:20.750Z,99.90
2023-01-20T02:53:53.022Z,99.90
2023-01-20T02:56:23.365Z,99.90
2023-01-20T02:59:00.161Z,99.90
2023-01-20T03:01:34.013Z,99.90
2023-01-20T03:04:03.756Z,99.90
2023-01-20T03:06:35.489Z,99.90
2023-01-20T03:09:06.598Z,99.90
2023-01-20T03:11:36.816Z,99.90
2023-01-20T03:14:11.461Z,99.90
2023-01-20T03:16:39.893Z,99.90
2023-01-20T03:19:06.711Z,99.90
2023-01-20T03:21:34.837Z,99.90
2023-01-20T03:24:03.389Z,99.90
2023-01-20T03:26:30.952Z,99.90
2023-01-20T03:28:58.815Z,99.90
2023-01-20T03:31:42.190Z,99.90
2023-01-20T03:34:12.648Z,99.90
2023-01-20T03:36:43.970Z,99.90
2023-01-20T03:39:10.885Z,99.90
2023-01-20T03:42:07.143Z,99.90
2023-01-20T03:44:59.649Z,99.90
2023-01-20T03:47:37.668Z,99.90
2023-01-20T03:50:13.317Z,99.90
2023-01-20T03:52:54.643Z,99.90
2023-01-20T03:55:32.110Z,99.90
2023-01-20T03:58:15.112Z,99.90
2023-01-20T04:00:47.822Z,99.90
2023-01-20T04:03:37.251Z,99.90
2023-01-20T04:06:06.406Z,99.90
2023-01-20T04:08:39.792Z,99.90
2023-01-20T04:11:08.107Z,99.90
2023-01-20T04:13:35.619Z,99.90
2023-01-20T04:16:03.758Z,99.90
2023-01-20T04:18:30.429Z,99.90
2023-01-20T04:21:02.297Z,99.90
2023-01-20T04:23:31.511Z,99.90
2023-01-20T04:25:58.123Z,99.90
2023-01-20T04:28:25.861Z,99.90
2023-01-20T04:30:52.686Z,99.90
2023-01-20T04:33:19.352Z,99.90
2023-01-20T04:35:45.953Z,99.90
2023-01-20T04:38:12.556Z,99.90
2023-01-20T04:40:39.221Z,99.90
2023-01-20T04:43:06.017Z,99.90
2023-01-20T04:45:32.653Z,99.90
2023-01-20T04:47:59.257Z,99.90
2023-01-20T04:50:25.897Z,99.90
2023-01-20T04:52:55.928Z,99.90
2023-01-20T04:55:22.566Z,99.90
2023-01-20T04:57:49.168Z,99.90
2023-01-20T05:00:19.866Z,99.90
2023-01-20T05:02:47.043Z,99.90
2023-01-20T05:05:14.366Z,99.90
2023-01-20T05:07:41.117Z,99.90
2023-01-20T05:10:08.255Z,99.90
2023-01-20T05:12:34.956Z,99.90
2023-01-20T05:15:01.568Z,99.90
2023-01-20T05:17:28.211Z,99.90
2023-01-20T05:19:54.818Z,99.90
2023-01-20T05:22:21.417Z,99.90
2023-01-20T05:24:48.032Z,99.90
2023-01-20T05:27:15.231Z,99.90
2023-01-20T05:29:42.302Z,99.90
2023-01-20T05:32:08.893Z,99.90
2023-01-20T05:34:35.489Z,99.90
2023-01-20T05:37:02.220Z,99.90
2023-01-20T05:39:28.843Z,99.90
2023-01-20T05:41:55.462Z,99.90
2023-01-20T05:44:22.149Z,99.90
2023-01-20T05:46:48.822Z,99.90
2023-01-20T05:49:15.961Z,99.90
2023-01-20T05:51:42.543Z,99.90
2023-01-20T05:54:09.237Z,99.90
2023-01-20T05:56:35.892Z,99.90
2023-01-20T05:59:02.750Z,99.90
2023-01-20T06:01:29.409Z,99.90
2023-01-20T06:03:56.206Z,99.90
2023-01-20T06:06:22.837Z,99.90
2023-01-20T06:08:52.497Z,99.90
2023-01-20T06:11:20.555Z,99.90
2023-01-20T06:13:48.507Z,99.90
2023-01-20T06:16:17.074Z,99.90
2023-01-20T06:18:43.852Z,99.90
2023-01-20T06:21:10.664Z,99.90
2023-01-20T06:23:37.334Z,99.90
2023-01-20T06:26:06.833Z,99.90
2023-01-20T06:28:34.208Z,99.90
2023-01-20T06:31:05.887Z,99.90
2023-01-20T06:33:33.775Z,99.90
2023-01-20T06:36:00.457Z,99.90
2023-01-20T06:38:29.842Z,99.90
2023-01-20T06:40:58.651Z,99.90
2023-01-20T06:43:25.671Z,99.90
2023-01-20T06:45:52.360Z,99.90
2023-01-20T06:48:19.038Z,99.90
2023-01-20T06:50:45.654Z,99.90
2023-01-20T06:53:12.253Z,99.90
2023-01-20T06:55:39.097Z,99.90
2023-01-20T06:58:05.693Z,99.90
2023-01-20T07:00:32.430Z,99.90
2023-01-20T07:02:59.105Z,99.90
2023-01-20T07:05:25.717Z,99.90
2023-01-20T07:07:52.325Z,99.90
2023-01-20T07:10:18.988Z,99.90
2023-01-20T07:12:45.578Z,99.90
2023-01-20T07:15:12.360Z,99.90
2023-01-20T07:17:39.113Z,99.90
2023-01-20T07:20:06.136Z,99.90
2023-01-20T07:22:32.738Z,99.90
2023-01-20T07:24:59.336Z,99.90
2023-01-20T07:27:25.978Z,99.90
2023-01-20T07:29:52.641Z,99.90
2023-01-20T07:32:20.255Z,99.90
2023-01-20T07:34:49.407Z,99.90
2023-01-20T07:37:16.785Z,99.90
2023-01-20T07:39:43.397Z,99.90
2023-01-20T07:42:09.975Z,99.90
2023-01-20T07:44:36.699Z,99.90
2023-01-20T07:47:03.312Z,99.90
2023-01-20T07:49:29.928Z,99.90
2023-01-20T07:51:57.356Z,99.90
2023-01-20T07:54:23.951Z,99.90
2023-01-20T07:56:50.565Z,99.90
2023-01-20T07:59:17.197Z,99.90
2023-01-20T08:01:44.111Z,99.90
2023-01-20T08:04:12.972Z,99.90
2023-01-20T08:06:39.568Z,99.90
2023-01-20T08:09:08.781Z,99.90
2023-01-20T08:11:35.368Z,99.90
2023-01-20T08:14:01.977Z,99.90
2023-01-20T08:16:28.608Z,99.90
2023-01-20T08:18:55.464Z,99.90
2023-01-20T08:21:27.591Z,99.90
2023-01-20T08:23:59.108Z,99.90
2023-01-20T08:26:27.711Z,99.90
2023-01-20T08:28:54.487Z,99.90
2023-01-20T08:31:23.495Z,99.90
2023-01-20T08:33:56.575Z,99.90
2023-01-20T08:36:26.751Z,99.90
2023-01-20T08:38:56.267Z,99.90
2023-01-20T08:41:26.704Z,99.90
2023-01-20T08:43:53.394Z,99.90
2023-01-20T08:46:21.445Z,99.90
2023-01-20T08:48:49.396Z,99.90
2023-01-20T08:51:20.107Z,99.90
2023-01-20T08:53:47.516Z,99.90
2023-01-20T08:56:14.833Z,99.90
2023-01-20T08:58:41.667Z,99.90
2023-01-20T09:01:16.925Z,99.90
2023-01-20T09:03:58.987Z,99.90
2023-01-20T09:06:30.211Z,99.90
2023-01-20T09:08:56.822Z,99.90
2023-01-20T09:11:27.297Z,99.90
2023-01-20T09:13:54.472Z,99.90
2023-01-20T09:16:21.388Z,99.90
2023-01-20T09:18:48.082Z,99.90
2023-01-20T09:21:14.777Z,99.90
2023-01-20T09:23:42.756Z,99.90
2023-01-20T09:26:10.258Z,99.90
2023-01-20T09:28:36.942Z,99.90
2023-01-20T09:31:09.050Z,99.90
2023-01-20T09:33:39.065Z,99.90
2023-01-20T09:36:08.023Z,90.40
2023-01-20T09:38:53.362Z,93.40
2023-01-20T09:41:44.893Z,94.90
2023-01-20T09:44:31.756Z,96.10
2023-01-20T09:47:21.604Z,98.20
2023-01-20T09:50:28.849Z,98.40
2023-01-20T09:53:05.005Z,99.00
2023-01-20T09:55:44.420Z,99.90
2023-01-20T09:59:01.632Z,99.80
2023-01-20T10:01:31.111Z,99.90
2023-01-20T10:04:04.984Z,99.90
2023-01-20T10:06:45.498Z,99.90
2023-01-20T10:09:38.345Z,99.90
2023-01-20T10:12:18.625Z,99.90
2023-01-20T10:15:07.193Z,99.90
2023-01-20T10:18:04.140Z,99.90
2023-01-20T10:20:49.387Z,99.90
2023-01-20T10:23:24.428Z,99.90
2023-01-20T10:26:04.944Z,99.90
2023-01-20T10:28:55.388Z,99.90
2023-01-20T10:31:26.780Z,99.90
2023-01-20T10:33:58.588Z,99.90
2023-01-20T10:36:28.934Z,99.90
2023-01-20T10:39:10.495Z,99.90
2023-01-20T10:41:52.328Z,99.90
2023-01-20T10:44:18.936Z,99.90
2023-01-20T10:47:06.399Z,99.90
2023-01-20T10:49:56.430Z,99.90
2023-01-20T10:52:45.117Z,99.90
2023-01-20T10:55:42.769Z,99.90
2023-01-20T10:58:27.661Z,99.90
2023-01-20T11:00:55.697Z,99.90
2023-01-20T11:03:24.121Z,99.90
2023-01-20T11:05:51.739Z,99.90
2023-01-20T11:08:22.142Z,99.90
2023-01-20T11:10:54.081Z,99.90
2023-01-20T11:13:21.192Z,99.90
2023-01-20T11:15:51.860Z,99.90
2023-01-20T11:18:22.684Z,99.90
2023-01-20T11:20:52.808Z,99.90
2023-01-20T11:23:33.854Z,99.90
2023-01-20T11:26:09.738Z,99.90
2023-01-20T11:28:51.402Z,99.90
2023-01-20T11:31:18.320Z,99.90
2023-01-20T11:34:02.981Z,99.90
2023-01-20T11:36:30.147Z,99.90
2023-01-20T11:38:57.543Z,99.90
2023-01-20T11:41:27.200Z,99.90
2023-01-20T11:43:59.334Z,99.90
2023-01-20T11:46:34.048Z,99.90
2023-01-20T11:49:17.384Z,99.90
2023-01-20T11:51:53.988Z,99.90
2023-01-20T11:54:26.887Z,99.90
2023-01-20T11:57:04.868Z,99.90
2023-01-20T11:59:34.958Z,99.90
2023-01-20T12:02:04.707Z,99.90
2023-01-20T12:04:57.049Z,99.90
2023-01-20T12:07:32.134Z,99.90
2023-01-20T12:10:05.973Z,99.90
2023-01-20T12:13:10.007Z,98.80
2023-01-20T12:15:42.127Z,99.50
2023-01-20T12:18:11.615Z,99.90
2023-01-20T12:21:07.866Z,99.90
2023-01-20T12:23:58.910Z,99.90
2023-01-20T12:26:28.262Z,99.90
2023-01-20T12:29:00.963Z,99.90
2023-01-20T12:31:27.821Z,99.90
2023-01-20T12:34:00.130Z,99.90
2023-01-20T12:36:54.939Z,99.90
2023-01-20T12:39:33.633Z,99.90
2023-01-20T12:42:35.573Z,99.90
2023-01-20T12:45:36.848Z,99.90
2023-01-20T12:48:35.011Z,99.90
2023-01-20T12:51:26.363Z,99.90
2023-01-20T12:54:35.814Z,99.90
2023-01-20T12:57:53.500Z,99.90
2023-01-20T13:00:20.732Z,99.90
2023-01-20T13:03:07.936Z,99.90
2023-01-20T13:06:08.646Z,99.90
2023-01-20T13:08:41.110Z,99.90
2023-01-20T13:11:38.040Z,99.90
2023-01-20T13:14:26.300Z,99.90
2023-01-20T13:17:06.761Z,99.90
2023-01-20T13:19:37.579Z,99.90
2023-01-20T13:22:20.103Z,99.90
2023-01-20T13:24:50.184Z,99.90
2023-01-20T13:27:22.812Z,99.90
2023-01-20T13:29:58.320Z,99.90
2023-01-20T13:35:27.466Z,99.90
2023-01-20T13:38:01.412Z,99.90
2023-01-20T13:40:37.284Z,99.90
2023-01-20T13:43:25.265Z,99.90
2023-01-20T13:46:07.064Z,99.90
2023-01-20T13:48:43.037Z,99.90
2023-01-20T13:51:15.754Z,99.90
2023-01-20T13:53:45.374Z,99.90
2023-01-20T13:56:28.401Z,99.90
2023-01-20T13:58:58.431Z,99.90
2023-01-20T14:01:26.298Z,99.90
2023-01-20T14:04:02.935Z,99.90
2023-01-20T14:06:29.837Z,99.90
2023-01-20T14:08:56.934Z,99.90
2023-01-20T14:11:25.995Z,99.90
2023-01-20T14:13:59.755Z,99.90
2023-01-20T14:16:37.185Z,99.90
2023-01-20T14:19:38.695Z,99.90
2023-01-20T14:22:29.791Z,99.90
2023-01-20T14:24:57.397Z,99.90
2023-01-20T14:27:27.865Z,99.90
2023-01-20T14:29:56.121Z,99.90
2023-01-20T14:32:33.673Z,99.90
2023-01-20T14:35:02.056Z,99.90
2023-01-20T14:37:34.927Z,99.90
2023-01-20T14:40:12.271Z,99.90
2023-01-20T14:42:39.748Z,99.90
2023-01-20T14:45:21.819Z,99.90
2023-01-20T14:47:49.152Z,99.90
2023-01-20T14:50:17.883Z,99.90
2023-01-20T14:52:48.182Z,99.90
2023-01-20T14:55:30.902Z,99.90
2023-01-20T14:57:58.235Z,99.90
2023-01-20T15:00:27.011Z,99.90
2023-01-20T15:03:12.323Z,99.90
2023-01-20T15:05:53.528Z,99.90
2023-01-20T15:09:04.418Z,99.90
2023-01-20T15:11:33.380Z,99.90
2023-01-20T15:14:08.518Z,99.90
2023-01-20T15:16:44.607Z,99.90
2023-01-20T15:19:17.250Z,99.90
2023-01-20T15:21:52.760Z,99.90
2023-01-20T15:24:30.711Z,99.90
2023-01-20T15:27:00.084Z,99.90
2023-01-20T15:29:32.695Z,99.90
2023-01-20T15:32:01.660Z,99.90
2023-01-20T15:34:29.328Z,99.90
2023-01-20T15:36:56.475Z,99.90
2023-01-20T15:39:30.127Z,99.90
2023-01-20T15:41:57.599Z,99.90
2023-01-20T15:44:25.903Z,99.90
2023-01-20T15:46:55.396Z,99.90
2023-01-20T15:49:25.014Z,99.90
2023-01-20T15:51:51.616Z,99.90
2023-01-20T15:54:18.217Z,99.90
2023-01-20T15:56:44.858Z,99.90
2023-01-20T15:59:20.995Z,99.90
2023-01-20T16:01:49.823Z,99.90
2023-01-20T16:04:16.700Z,99.90
2023-01-20T16:06:43.771Z,99.90
2023-01-20T16:09:20.770Z,99.90
2023-01-20T16:11:47.470Z,99.90
2023-01-20T16:14:14.102Z,99.90
2023-01-20T16:16:40.960Z,99.90
2023-01-20T16:19:09.484Z,99.90
2023-01-20T16:21:36.084Z,99.90
2023-01-20T16:24:02.688Z,99.90
2023-01-20T16:26:31.557Z,99.90
2023-01-20T16:28:58.819Z,99.90
2023-01-20T16:31:27.201Z,99.90
2023-01-20T16:33:54.356Z,99.90
2023-01-20T16:36:23.227Z,99.90
2023-01-20T16:38:51.063Z,99.90
2023-01-20T16:41:22.121Z,99.90
2023-01-20T16:43:50.090Z,99.90
2023-01-20T16:46:25.405Z,99.90
2023-01-20T16:48:54.200Z,99.90
2023-01-20T16:51:22.853Z,99.90
2023-01-20T16:53:49.636Z,99.90
2023-01-20T16:56:18.474Z,99.90
2023-01-20T16:58:52.804Z,99.90
2023-01-20T17:01:24.337Z,99.90
2023-01-20T17:03:52.704Z,99.90
2023-01-20T17:06:21.964Z,99.90
2023-01-20T17:08:53.948Z,99.90
2023-01-20T17:11:22.858Z,99.90
2023-01-20T17:13:51.212Z,99.90
2023-01-20T17:16:18.421Z,99.90
2023-01-20T17:18:55.368Z,99.90
2023-01-20T17:21:23.299Z,99.90
2023-01-20T17:23:54.964Z,99.90
2023-01-20T17:26:22.283Z,99.90
2023-01-20T17:28:49.193Z,99.90
2023-01-20T17:31:15.860Z,99.90
2023-01-20T17:33:46.360Z,99.90
2023-01-20T17:36:12.968Z,99.90
2023-01-20T17:38:42.343Z,99.90
2023-01-20T17:41:09.567Z,99.90
2023-01-20T17:43:41.028Z,99.90
2023-01-20T17:46:17.604Z,99.90
2023-01-20T17:48:45.249Z,99.90
2023-01-20T17:51:14.452Z,99.90
2023-01-20T17:53:41.489Z,99.90
2023-01-20T17:56:12.775Z,99.90
2023-01-20T17:58:42.171Z,99.90
2023-01-20T18:01:19.149Z,99.90
2023-01-20T18:03:47.156Z,99.90
2023-01-20T18:06:15.910Z,99.90
2023-01-20T18:08:44.035Z,99.90
2023-01-20T18:11:19.385Z,99.90
2023-01-20T18:13:47.420Z,99.90
2023-01-20T18:16:15.757Z,99.90
2023-01-20T18:18:43.752Z,99.90
2023-01-20T18:21:18.891Z,99.90
2023-01-20T18:23:46.988Z,99.90
2023-01-20T18:26:15.390Z,99.90
2023-01-20T18:28:42.651Z,99.90
2023-01-20T18:31:15.225Z,99.90
2023-01-20T18:33:44.633Z,99.90
2023-01-20T18:36:14.940Z,99.90
2023-01-20T18:38:45.512Z,99.90
2023-01-20T18:41:14.935Z,99.90
2023-01-20T18:43:41.855Z,99.90
2023-01-20T18:46:09.549Z,99.90
2023-01-20T18:48:45.788Z,99.90
2023-01-20T18:51:16.952Z,99.90
2023-01-20T18:53:45.320Z,99.90
2023-01-20T18:56:14.437Z,99.90
2023-01-20T18:58:49.487Z,99.90
2023-01-20T19:01:22.065Z,99.90
2023-01-20T19:03:49.978Z,99.90
2023-01-20T19:06:19.419Z,99.90
2023-01-20T19:08:48.055Z,99.90
2023-01-20T19:11:20.658Z,99.90
2023-01-20T19:13:51.108Z,99.90
2023-01-20T19:16:19.262Z,99.90
2023-01-20T19:18:51.839Z,99.90
2023-01-20T19:21:18.688Z,99.90
2023-01-20T19:23:59.765Z,99.90
2023-01-20T19:26:28.545Z,99.90
2023-01-20T19:29:06.698Z,99.90
2023-01-20T19:31:36.247Z,99.90
2023-01-20T19:34:03.484Z,99.90
2023-01-20T19:36:30.191Z,99.90
2023-01-20T19:38:57.430Z,99.90
2023-01-20T19:41:27.528Z,99.90
2023-01-20T19:43:56.974Z,99.90
2023-01-20T19:46:26.876Z,99.90
2023-01-20T19:48:55.890Z,99.90
2023-01-20T19:51:23.114Z,99.90
2023-01-20T19:54:00.179Z,99.90
2023-01-20T19:56:30.124Z,99.90
2023-01-20T19:58:57.704Z,99.90
2023-01-20T20:01:26.500Z,99.90
2023-01-20T20:03:56.382Z,99.90
2023-01-20T20:06:37.923Z,99.90
2023-01-20T20:09:11.849Z,99.90
2023-01-20T20:11:39.164Z,99.90
2023-01-20T20:14:07.849Z,99.90
2023-01-20T20:16:36.916Z,99.90
2023-01-20T20:19:05.266Z,99.90
2023-01-20T20:21:32.901Z,99.90
2023-01-20T20:24:01.837Z,99.90
2023-01-20T20:26:34.190Z,99.90
2023-01-20T20:29:03.113Z,99.90
2023-01-20T20:31:30.156Z,99.90
2023-01-20T20:33:58.412Z,99.90
2023-01-20T20:36:28.095Z,99.90
2023-01-20T20:38:54.853Z,99.90
2023-01-20T20:41:22.305Z,99.90
2023-01-20T20:43:48.929Z,99.90
2023-01-20T20:46:16.321Z,99.90
2023-01-20T20:48:43.088Z,99.90
2023-01-20T20:51:15.730Z,99.90
2023-01-20T20:53:43.686Z,99.90
2023-01-20T20:56:13.761Z,99.90
2023-01-20T20:58:59.542Z,99.90
2023-01-20T21:01:27.771Z,99.90
2023-01-20T21:03:57.304Z,99.90
2023-01-20T21:06:24.041Z,99.90
2023-01-20T21:08:50.739Z,99.90
2023-01-20T21:11:18.446Z,99.90
2023-01-20T21:13:45.148Z,99.90
2023-01-20T21:16:16.592Z,99.90
2023-01-20T21:18:43.264Z,99.90
2023-01-20T21:21:13.813Z,99.90
2023-01-20T21:23:41.568Z,99.90
2023-01-20T21:26:11.845Z,99.90
2023-01-20T21:28:39.696Z,99.90
2023-01-20T21:31:09.950Z,99.90
2023-01-20T21:33:38.314Z,99.90
2023-01-20T21:36:06.954Z,99.90
2023-01-20T21:38:33.747Z,99.90
2023-01-20T21:41:09.707Z,99.90
2023-01-20T21:43:56.981Z,99.90
2023-01-20T21:46:24.677Z,99.90
2023-01-20T21:49:10.128Z,99.90
2023-01-20T21:51:55.580Z,99.90
2023-01-20T21:54:22.430Z,99.90
2023-01-20T21:56:50.900Z,99.90
2023-01-20T21:59:17.678Z,99.90
2023-01-20T22:01:44.481Z,99.90
2023-01-20T22:04:11.209Z,99.90
2023-01-20T22:06:37.855Z,99.90
2023-01-20T22:09:04.531Z,99.90
2023-01-20T22:11:31.159Z,99.90
2023-01-20T22:13:57.865Z,99.90
2023-01-20T22:16:25.540Z,99.90
2023-01-20T22:18:53.128Z,99.90
2023-01-20T22:21:21.371Z,99.90
2023-01-20T22:23:48.596Z,99.90
2023-01-20T22:26:15.233Z,99.90
2023-01-20T22:28:42.261Z,99.90
2023-01-20T22:31:11.728Z,99.90
2023-01-20T22:33:38.617Z,99.90
2023-01-20T22:36:06.390Z,99.90
2023-01-20T22:38:34.019Z,99.90
2023-01-20T22:41:08.569Z,99.90
2023-01-20T22:43:35.452Z,99.90
2023-01-20T22:46:03.336Z,99.90
2023-01-20T22:48:34.199Z,99.90
2023-01-20T22:51:13.149Z,99.90
2023-01-20T22:53:40.568Z,99.90
2023-01-20T22:56:12.112Z,99.90
2023-01-20T22:58:39.034Z,99.90
2023-01-20T23:01:11.108Z,99.90
2023-01-20T23:03:37.872Z,99.90
2023-01-20T23:06:04.637Z,99.90
2023-01-20T23:08:32.587Z,99.90
2023-01-20T23:11:05.011Z,99.90
2023-01-20T23:13:31.980Z,99.90
2023-01-20T23:15:58.609Z,99.90
2023-01-20T23:18:25.601Z,99.90
2023-01-20T23:20:53.572Z,99.90
2023-01-20T23:23:21.574Z,99.90
2023-01-20T23:25:48.263Z,99.90
2023-01-20T23:28:15.108Z,99.90
2023-01-20T23:30:42.128Z,99.90
2023-01-20T23:33:09.837Z,99.90
2023-01-20T23:35:38.872Z,99.90
2023-01-20T23:38:08.761Z,99.90
2023-01-20T23:40:35.851Z,99.90
2023-01-20T23:43:02.452Z,99.90
2023-01-20T23:45:29.278Z,99.90
2023-01-20T23:47:56.086Z,99.90
2023-01-20T23:50:22.872Z,99.90
2023-01-20T23:52:49.496Z,99.90
2023-01-20T23:55:16.251Z,99.90
2023-01-20T23:57:42.860Z,99.90
